createdAt,value
2023-05-16T00:00:48.338Z,0.57
2023-05-16T00:03:15.506Z,1.08
2023-05-16T00:05:42.470Z,1.42
2023-05-16T00:08:09.577Z,0.77
2023-05-16T00:10:36.930Z,1.10
2023-05-16T00:13:04.065Z,0.77
2023-05-16T00:15:31.204Z,0.65
2023-05-16T00:17:59.433Z,1.08
2023-05-16T00:20:28.285Z,0.80
2023-05-16T00:22:56.281Z,0.82
2023-05-16T00:25:23.660Z,1.13
2023-05-16T00:27:50.701Z,1.50
2023-05-16T00:30:17.826Z,1.52
2023-05-16T00:32:45.007Z,0.73
2023-05-16T00:35:12.558Z,1.77
2023-05-16T00:37:40.242Z,1.27
2023-05-16T00:40:07.904Z,0.75
2023-05-16T00:42:34.841Z,0.88
2023-05-16T00:45:01.774Z,1.30
2023-05-16T00:47:28.938Z,1.08
2023-05-16T00:49:56.768Z,0.90
2023-05-16T00:52:24.387Z,0.98
2023-05-16T00:54:52.163Z,1.00
2023-05-16T00:57:19.640Z,1.38
2023-05-16T00:59:50.070Z,1.58
2023-05-16T01:02:17.261Z,2.08
2023-05-16T01:04:44.778Z,1.38
2023-05-16T01:07:12.193Z,1.80
2023-05-16T01:09:39.545Z,2.67
2023-05-16T01:12:23.647Z,1.83
2023-05-16T01:15:03.085Z,0.77
2023-05-16T01:17:47.957Z,0.40
2023-05-16T01:20:21.222Z,1.70
2023-05-16T01:23:05.049Z,1.80
2023-05-16T01:25:48.336Z,2.03
2023-05-16T01:28:18.169Z,0.70
2023-05-16T01:30:45.247Z,1.73
2023-05-16T01:33:12.634Z,0.70
2023-05-16T01:36:08.732Z,0.98
2023-05-16T01:39:07.422Z,2.17
2023-05-16T01:41:48.190Z,1.75
2023-05-16T01:44:27.859Z,0.80
2023-05-16T01:46:59.746Z,1.63
2023-05-16T01:49:56.248Z,2.22
2023-05-16T01:52:48.735Z,1.23
2023-05-16T01:55:25.303Z,1.10
2023-05-16T01:57:53.379Z,1.83
2023-05-16T02:00:21.321Z,1.40
2023-05-16T02:02:48.331Z,0.60
2023-05-16T02:05:15.356Z,1.15
2023-05-16T02:07:42.788Z,1.45
2023-05-16T02:10:10.421Z,1.52
2023-05-16T02:12:37.511Z,1.55
2023-05-16T02:15:04.736Z,1.55
2023-05-16T02:17:32.186Z,1.33
2023-05-16T02:19:59.821Z,1.02
2023-05-16T02:22:26.768Z,2.42
2023-05-16T02:24:54.071Z,1.50
2023-05-16T02:27:21.163Z,1.27
2023-05-16T02:29:48.442Z,2.63
2023-05-16T02:32:15.470Z,1.88
2023-05-16T02:34:43.152Z,1.58
2023-05-16T02:37:12.475Z,1.55
2023-05-16T02:39:40.527Z,1.57
2023-05-16T02:42:07.863Z,1.85
2023-05-16T02:44:34.780Z,3.05
2023-05-16T02:47:01.820Z,2.25
2023-05-16T02:49:28.769Z,1.90
2023-05-16T02:51:55.732Z,2.65
2023-05-16T02:54:22.693Z,1.48
2023-05-16T02:56:49.912Z,2.28
2023-05-16T02:59:16.840Z,1.92
2023-05-16T03:01:43.994Z,2.42
2023-05-16T03:04:11.245Z,2.97
2023-05-16T03:06:38.350Z,2.58
2023-05-16T03:09:05.583Z,4.53
2023-05-16T03:11:32.499Z,2.22
2023-05-16T03:14:01.787Z,2.17
2023-05-16T03:18:57.884Z,2.55
2023-05-16T03:21:25.071Z,2.25
2023-05-16T03:23:52.059Z,1.45
2023-05-16T03:26:19.067Z,1.95
2023-05-16T03:28:46.072Z,2.20
2023-05-16T03:31:13.162Z,2.58
2023-05-16T03:33:40.312Z,1.92
2023-05-16T03:36:07.736Z,1.60
2023-05-16T03:38:35.069Z,1.42
2023-05-16T03:41:02.251Z,1.33
2023-05-16T03:43:29.422Z,2.78
2023-05-16T03:45:56.407Z,1.67
2023-05-16T03:48:23.427Z,2.10
2023-05-16T03:50:51.474Z,2.15
2023-05-16T03:53:18.490Z,1.70
2023-05-16T03:55:48.110Z,1.40
2023-05-16T03:58:16.588Z,1.67
2023-05-16T04:00:43.579Z,1.73
2023-05-16T04:03:11.470Z,2.10
2023-05-16T04:05:38.451Z,1.27
2023-05-16T04:08:05.964Z,2.10
2023-05-16T04:10:32.933Z,1.50
2023-05-16T04:12:59.951Z,1.88
2023-05-16T04:15:27.153Z,1.38
2023-05-16T04:17:54.479Z,2.50
2023-05-16T04:20:21.439Z,2.17
2023-05-16T04:22:48.706Z,2.08
2023-05-16T04:25:15.899Z,2.53
2023-05-16T04:27:43.027Z,1.02
2023-05-16T04:30:12.032Z,1.38
2023-05-16T04:32:39.340Z,2.10
2023-05-16T04:35:09.335Z,2.20
2023-05-16T04:37:36.945Z,1.65
2023-05-16T04:40:04.202Z,2.05
2023-05-16T04:42:32.728Z,2.40
2023-05-16T04:44:59.822Z,1.50
2023-05-16T04:47:28.064Z,1.98
2023-05-16T04:49:55.025Z,1.40
2023-05-16T04:52:21.937Z,1.05
2023-05-16T04:54:52.571Z,0.90
2023-05-16T04:57:19.624Z,1.20
2023-05-16T04:59:46.568Z,1.58
2023-05-16T05:02:13.602Z,2.67
2023-05-16T05:04:40.706Z,1.63
2023-05-16T05:07:08.279Z,2.20
2023-05-16T05:09:35.282Z,1.30
2023-05-16T05:12:02.490Z,1.55
2023-05-16T05:14:29.525Z,2.75
2023-05-16T05:16:56.615Z,0.90
2023-05-16T05:19:23.701Z,1.77
2023-05-16T05:21:51.078Z,1.38
2023-05-16T05:24:18.052Z,2.33
2023-05-16T05:26:44.970Z,1.40
2023-05-16T05:29:11.961Z,1.25
2023-05-16T05:31:38.997Z,1.27
2023-05-16T05:34:06.183Z,1.88
2023-05-16T05:36:33.120Z,1.63
2023-05-16T05:39:00.215Z,1.83
2023-05-16T05:41:27.325Z,1.63
2023-05-16T05:43:54.332Z,1.65
2023-05-16T05:46:21.538Z,2.03
2023-05-16T05:48:48.703Z,1.33
2023-05-16T05:51:15.833Z,1.48
2023-05-16T05:53:42.982Z,1.88
2023-05-16T05:56:10.029Z,1.25
2023-05-16T05:58:37.054Z,0.77
2023-05-16T06:01:04.278Z,2.25
2023-05-16T06:03:31.874Z,1.45
2023-05-16T06:05:59.036Z,1.98
2023-05-16T06:08:26.188Z,1.75
2023-05-16T06:10:53.279Z,2.30
2023-05-16T06:13:20.259Z,1.75
2023-05-16T06:15:54.305Z,1.50
2023-05-16T06:18:21.800Z,1.73
2023-05-16T06:20:48.781Z,1.10
2023-05-16T06:23:16.237Z,1.73
2023-05-16T06:25:43.203Z,1.65
2023-05-16T06:28:10.174Z,1.08
2023-05-16T06:30:37.138Z,1.85
2023-05-16T06:33:04.458Z,1.70
2023-05-16T06:35:31.413Z,1.25
2023-05-16T06:37:58.495Z,1.80
2023-05-16T06:40:25.556Z,1.45
2023-05-16T06:42:52.523Z,1.40
2023-05-16T06:45:19.757Z,1.00
2023-05-16T06:47:46.838Z,1.15
2023-05-16T06:50:14.060Z,1.38
2023-05-16T06:52:41.988Z,1.98
2023-05-16T06:55:09.667Z,2.97
2023-05-16T06:57:36.751Z,4.88
2023-05-16T07:00:04.183Z,3.58
2023-05-16T07:02:31.377Z,5.78
2023-05-16T07:04:58.451Z,4.20
2023-05-16T07:07:25.532Z,4.50
2023-05-16T07:09:52.680Z,1.67
2023-05-16T07:12:22.164Z,4.60
2023-05-16T07:14:49.129Z,4.53
2023-05-16T07:17:17.110Z,4.75
2023-05-16T07:19:44.173Z,4.93
2023-05-16T07:22:12.323Z,3.03
2023-05-16T07:24:39.412Z,4.22
2023-05-16T07:27:06.882Z,2.88
2023-05-16T07:29:33.956Z,4.05
2023-05-16T07:32:01.168Z,3.13
2023-05-16T07:34:28.278Z,2.92
2023-05-16T07:36:55.264Z,4.18
2023-05-16T07:39:22.296Z,3.65
2023-05-16T07:41:49.267Z,4.07
2023-05-16T07:44:16.437Z,3.13
2023-05-16T07:46:45.332Z,4.03
2023-05-16T07:49:12.494Z,1.88
2023-05-16T07:51:39.475Z,2.80
2023-05-16T07:54:06.782Z,2.28
2023-05-16T07:56:33.992Z,3.33
2023-05-16T07:59:01.299Z,2.08
2023-05-16T08:01:28.424Z,2.20
2023-05-16T08:03:55.493Z,2.35
2023-05-16T08:06:22.520Z,2.72
2023-05-16T08:08:49.583Z,2.08
2023-05-16T08:11:19.443Z,2.80
2023-05-16T08:13:46.467Z,1.58
2023-05-16T08:16:13.538Z,2.03
2023-05-16T08:18:40.983Z,1.95
2023-05-16T08:21:09.222Z,2.65
2023-05-16T08:23:36.752Z,1.95
2023-05-16T08:26:03.910Z,2.40
2023-05-16T08:28:31.318Z,1.98
2023-05-16T08:30:58.570Z,2.55
2023-05-16T08:33:25.917Z,2.20
2023-05-16T08:35:53.118Z,1.50
2023-05-16T08:38:20.815Z,1.65
2023-05-16T08:40:48.072Z,2.20
2023-05-16T08:43:15.460Z,1.83
2023-05-16T08:45:42.848Z,1.85
2023-05-16T08:48:12.232Z,2.97
2023-05-16T08:50:39.766Z,1.98
2023-05-16T08:53:09.220Z,1.30
2023-05-16T08:55:37.987Z,1.17
2023-05-16T08:58:04.994Z,2.55
2023-05-16T09:00:32.638Z,0.70
2023-05-16T09:03:00.363Z,1.40
2023-05-16T09:05:29.889Z,3.05
2023-05-16T09:07:57.155Z,1.85
2023-05-16T09:10:24.569Z,1.73
2023-05-16T09:12:51.828Z,1.33
2023-05-16T09:15:21.423Z,2.00
2023-05-16T09:17:49.418Z,2.33
2023-05-16T09:20:18.971Z,0.90
2023-05-16T09:22:57.444Z,2.22
2023-05-16T09:28:02.877Z,2.10
2023-05-16T09:30:35.039Z,3.63
2023-05-16T09:33:03.089Z,2.80
2023-05-16T09:35:43.787Z,2.63
2023-05-16T09:38:18.455Z,1.30
2023-05-16T09:40:46.345Z,2.28
2023-05-16T09:43:16.908Z,2.40
2023-05-16T09:48:17.389Z,1.25
2023-05-16T09:50:54.796Z,1.65
2023-05-16T09:53:29.454Z,1.02
2023-05-16T09:56:13.864Z,2.88
2023-05-16T09:58:42.986Z,1.88
2023-05-16T10:01:11.137Z,1.73
2023-05-16T10:03:40.597Z,1.85
2023-05-16T10:06:09.110Z,0.70
2023-05-16T10:08:37.221Z,0.90
2023-05-16T10:11:06.014Z,1.65
2023-05-16T10:13:36.053Z,1.83
2023-05-16T10:16:10.252Z,1.85
2023-05-16T10:18:40.309Z,1.80
2023-05-16T10:21:13.695Z,1.23
2023-05-16T10:23:46.668Z,0.65
2023-05-16T10:26:16.345Z,0.93
2023-05-16T10:28:43.773Z,0.73
2023-05-16T10:31:11.974Z,1.08
2023-05-16T10:33:41.048Z,1.33
2023-05-16T10:36:12.141Z,1.23
2023-05-16T10:41:08.567Z,1.40
2023-05-16T10:43:36.925Z,1.20
2023-05-16T10:46:07.779Z,1.20
2023-05-16T10:48:39.882Z,0.50
2023-05-16T10:51:32.952Z,0.98
2023-05-16T10:54:09.744Z,1.20
2023-05-16T10:56:37.504Z,2.03
2023-05-16T10:59:07.463Z,1.38
2023-05-16T11:01:35.689Z,1.23
2023-05-16T11:04:11.379Z,0.90
2023-05-16T11:06:41.430Z,1.27
2023-05-16T11:09:23.448Z,1.10
2023-05-16T11:12:00.347Z,1.60
2023-05-16T11:14:39.072Z,0.28
2023-05-16T11:17:20.959Z,0.45
2023-05-16T11:19:55.272Z,1.08
2023-05-16T11:22:27.440Z,1.02
2023-05-16T11:25:05.857Z,1.55
2023-05-16T11:27:43.493Z,0.45
2023-05-16T11:30:10.641Z,0.20
2023-05-16T11:32:41.565Z,0.73
2023-05-16T11:35:14.316Z,1.20
2023-05-16T11:37:42.982Z,0.20
2023-05-16T11:40:12.397Z,0.73
2023-05-16T11:42:44.965Z,0.17
2023-05-16T11:45:16.097Z,0.60
2023-05-16T11:50:14.214Z,0.30
2023-05-16T11:52:44.930Z,1.08
2023-05-16T11:55:28.414Z,0.00
2023-05-16T11:58:01.606Z,0.57
2023-05-16T12:00:28.887Z,0.10
2023-05-16T12:03:03.471Z,0.65
2023-05-16T12:05:32.248Z,0.73
2023-05-16T12:08:00.253Z,0.43
2023-05-16T12:10:27.589Z,0.75
2023-05-16T12:12:55.426Z,0.50
2023-05-16T12:15:23.038Z,0.40
2023-05-16T12:17:50.988Z,0.28
2023-05-16T12:20:18.989Z,1.00
2023-05-16T12:22:46.770Z,0.10
2023-05-16T12:25:32.087Z,1.08
2023-05-16T12:28:01.658Z,1.23
2023-05-16T12:30:30.769Z,0.85
2023-05-16T12:33:05.858Z,0.47
2023-05-16T12:35:37.860Z,0.17
2023-05-16T12:38:06.129Z,0.43
2023-05-16T12:40:33.290Z,0.35
2023-05-16T12:43:00.539Z,1.70
2023-05-16T12:45:32.328Z,1.45
2023-05-16T12:48:13.177Z,0.95
2023-05-16T12:50:41.966Z,0.98
2023-05-16T12:53:14.127Z,0.40
2023-05-16T12:55:41.863Z,0.50
2023-05-16T12:58:10.129Z,0.60
2023-05-16T13:00:37.867Z,1.35
2023-05-16T13:03:06.544Z,0.82
2023-05-16T13:05:34.751Z,0.65
2023-05-16T13:08:02.682Z,0.47
2023-05-16T13:10:30.181Z,0.73
2023-05-16T13:13:00.054Z,1.02
2023-05-16T13:15:28.087Z,1.05
2023-05-16T13:17:55.966Z,0.15
2023-05-16T13:20:23.066Z,0.50
2023-05-16T13:22:50.206Z,1.08
2023-05-16T13:25:17.226Z,0.88
2023-05-16T13:27:44.257Z,0.10
2023-05-16T13:30:11.824Z,0.15
2023-05-16T13:32:39.191Z,0.28
2023-05-16T13:35:09.320Z,1.30
2023-05-16T13:37:37.753Z,0.43
2023-05-16T13:40:05.343Z,0.80
2023-05-16T13:42:32.486Z,0.80
2023-05-16T13:44:59.522Z,1.13
2023-05-16T13:47:27.895Z,0.40
2023-05-16T13:49:55.271Z,1.50
2023-05-16T13:52:22.365Z,0.43
2023-05-16T13:54:49.551Z,0.60
2023-05-16T13:57:16.767Z,0.75
2023-05-16T14:02:26.270Z,0.20
2023-05-16T14:04:54.133Z,1.65
2023-05-16T14:07:21.249Z,0.35
2023-05-16T14:09:48.334Z,0.17
2023-05-16T14:12:15.482Z,0.88
2023-05-16T14:14:42.626Z,1.52
2023-05-16T14:17:09.914Z,0.13
2023-05-16T14:19:37.408Z,0.25
2023-05-16T14:22:05.928Z,0.30
2023-05-16T14:24:33.938Z,0.00
2023-05-16T14:27:00.919Z,0.13
2023-05-16T14:29:28.526Z,0.75
2023-05-16T14:31:56.457Z,0.88
2023-05-16T14:34:23.980Z,0.30
2023-05-16T14:36:51.164Z,0.50
2023-05-16T14:39:18.658Z,1.23
2023-05-16T14:41:45.735Z,0.40
2023-05-16T14:44:12.955Z,0.90
2023-05-16T14:46:40.264Z,0.15
2023-05-16T14:49:07.414Z,0.00
2023-05-16T14:51:34.447Z,0.15
2023-05-16T14:54:01.670Z,0.25
2023-05-16T14:56:28.685Z,0.80
2023-05-16T14:58:55.696Z,1.27
2023-05-16T15:01:22.919Z,0.93
2023-05-16T15:03:55.830Z,0.22
2023-05-16T15:06:24.365Z,0.40
2023-05-16T15:08:51.603Z,0.50
2023-05-16T15:11:18.646Z,1.08
2023-05-16T15:13:46.498Z,0.65
2023-05-16T15:16:13.698Z,0.75
2023-05-16T15:18:41.991Z,0.43
2023-05-16T15:21:09.293Z,0.28
2023-05-16T15:23:36.823Z,0.22
2023-05-16T15:26:04.555Z,0.10
2023-05-16T15:28:31.596Z,0.50
2023-05-16T15:30:58.606Z,0.05
2023-05-16T15:33:26.555Z,0.52
2023-05-16T15:35:53.713Z,0.28
2023-05-16T15:38:20.814Z,0.20
2023-05-16T15:40:50.795Z,0.32
2023-05-16T15:43:25.045Z,0.52
2023-05-16T15:45:52.780Z,0.45
2023-05-16T15:48:19.951Z,0.50
2023-05-16T15:50:47.019Z,0.00
2023-05-16T15:53:14.063Z,0.32
2023-05-16T15:55:41.254Z,0.52
2023-05-16T15:58:08.282Z,0.93
2023-05-16T16:00:35.311Z,0.43
2023-05-16T16:03:02.357Z,0.45
2023-05-16T16:05:29.878Z,0.15
2023-05-16T16:07:57.045Z,0.22
2023-05-16T16:10:24.132Z,0.22
2023-05-16T16:13:01.832Z,0.50
2023-05-16T16:15:32.838Z,0.55
2023-05-16T16:18:00.961Z,0.10
2023-05-16T16:20:28.479Z,1.58
2023-05-16T16:22:55.647Z,0.98
2023-05-16T16:25:22.884Z,0.35
2023-05-16T16:27:50.008Z,0.40
2023-05-16T16:30:17.377Z,0.22
2023-05-16T16:32:44.781Z,0.35
2023-05-16T16:35:12.064Z,0.30
2023-05-16T16:37:39.260Z,0.80
2023-05-16T16:40:09.226Z,0.05
2023-05-16T16:42:38.101Z,0.35
2023-05-16T16:45:06.155Z,0.10
2023-05-16T16:47:33.963Z,0.68
2023-05-16T16:50:01.520Z,0.22
2023-05-16T16:52:29.042Z,0.25
2023-05-16T16:54:56.359Z,0.93
2023-05-16T16:57:23.458Z,0.20
2023-05-16T16:59:50.969Z,0.38
2023-05-16T17:02:18.249Z,0.40
2023-05-16T17:04:45.452Z,0.50
2023-05-16T17:07:13.127Z,0.47
2023-05-16T17:09:42.390Z,0.30
2023-05-16T17:12:19.544Z,0.20
2023-05-16T17:14:48.088Z,1.25
2023-05-16T17:17:16.209Z,0.13
2023-05-16T17:19:45.081Z,0.20
2023-05-16T17:22:12.629Z,0.00
2023-05-16T17:24:39.721Z,0.30
2023-05-16T17:27:06.797Z,0.20
2023-05-16T17:29:33.863Z,0.77
2023-05-16T17:32:01.143Z,0.10
2023-05-16T17:34:28.173Z,0.38
2023-05-16T17:36:55.221Z,0.17
2023-05-16T17:39:22.713Z,0.10
2023-05-16T17:41:49.777Z,0.65
2023-05-16T17:44:16.852Z,0.45
2023-05-16T17:46:44.513Z,1.05
2023-05-16T17:49:12.007Z,0.55
2023-05-16T17:51:49.195Z,0.00
2023-05-16T17:54:18.607Z,0.40
2023-05-16T17:56:46.775Z,0.65
2023-05-16T17:59:15.134Z,0.55
2023-05-16T18:01:43.596Z,1.20
2023-05-16T18:04:10.945Z,1.20
2023-05-16T18:06:39.012Z,0.60
2023-05-16T18:09:09.756Z,0.60
2023-05-16T18:11:38.993Z,0.40
2023-05-16T18:14:06.584Z,0.82
2023-05-16T18:16:33.639Z,0.38
2023-05-16T18:19:00.883Z,0.10
2023-05-16T18:21:28.169Z,0.40
2023-05-16T18:23:59.123Z,0.30
2023-05-16T18:28:54.751Z,0.70
2023-05-16T18:31:22.336Z,0.77
2023-05-16T18:33:50.006Z,0.40
2023-05-16T18:36:17.071Z,0.32
2023-05-16T18:38:44.395Z,0.63
2023-05-16T18:41:11.427Z,0.03
2023-05-16T18:43:38.611Z,0.20
2023-05-16T18:46:05.744Z,0.57
2023-05-16T18:48:35.341Z,0.40
2023-05-16T18:51:03.202Z,0.60
2023-05-16T18:53:30.468Z,0.80
2023-05-16T18:55:57.446Z,0.50
2023-05-16T18:58:24.498Z,1.17
2023-05-16T19:00:51.824Z,0.77
2023-05-16T19:03:19.337Z,0.32
2023-05-16T19:05:46.618Z,0.40
2023-05-16T19:08:13.811Z,1.10
2023-05-16T19:10:41.853Z,0.35
2023-05-16T19:13:09.137Z,0.35
2023-05-16T19:15:39.342Z,0.30
2023-05-16T19:18:06.730Z,0.50
2023-05-16T19:20:34.908Z,1.27
2023-05-16T19:23:03.678Z,1.17
2023-05-16T19:25:30.825Z,1.27
2023-05-16T19:27:58.431Z,0.68
2023-05-16T19:30:25.956Z,0.73
2023-05-16T19:32:53.422Z,1.05
2023-05-16T19:35:20.791Z,0.80
2023-05-16T19:37:47.940Z,0.63
2023-05-16T19:40:17.241Z,0.93
2023-05-16T19:42:44.665Z,1.23
2023-05-16T19:45:12.141Z,1.00
2023-05-16T19:47:39.407Z,1.23
2023-05-16T19:50:07.129Z,0.50
2023-05-16T19:52:34.444Z,0.95
2023-05-16T19:55:01.855Z,0.70
2023-05-16T19:57:29.084Z,1.20
2023-05-16T19:59:56.127Z,0.73
2023-05-16T20:02:24.523Z,1.08
2023-05-16T20:04:52.339Z,1.67
2023-05-16T20:07:19.702Z,0.80
2023-05-16T20:09:46.869Z,1.15
2023-05-16T20:12:14.316Z,1.95
2023-05-16T20:14:42.182Z,0.57
2023-05-16T20:17:09.431Z,0.17
2023-05-16T20:19:37.628Z,0.52
2023-05-16T20:22:04.918Z,1.33
2023-05-16T20:24:32.082Z,0.28
2023-05-16T20:26:59.249Z,0.03
2023-05-16T20:29:26.496Z,0.95
2023-05-16T20:31:53.695Z,0.32
2023-05-16T20:34:21.091Z,0.60
2023-05-16T20:36:48.284Z,0.15
2023-05-16T20:39:15.529Z,0.60
2023-05-16T20:41:42.529Z,0.88
2023-05-16T20:44:09.596Z,0.00
2023-05-16T20:46:37.188Z,0.10
2023-05-16T20:49:04.362Z,0.82
2023-05-16T20:51:32.052Z,0.35
2023-05-16T20:53:59.224Z,0.00
2023-05-16T20:56:26.433Z,1.17
2023-05-16T20:58:53.519Z,0.22
2023-05-16T21:01:20.627Z,0.30
2023-05-16T21:03:47.687Z,0.43
2023-05-16T21:06:14.774Z,0.10
2023-05-16T21:08:41.844Z,0.08
2023-05-16T21:11:08.850Z,0.50
2023-05-16T21:13:35.921Z,0.77
2023-05-16T21:16:03.118Z,0.10
2023-05-16T21:18:30.176Z,0.00
2023-05-16T21:20:57.271Z,0.10
2023-05-16T21:23:24.363Z,0.90
2023-05-16T21:25:51.624Z,0.17
2023-05-16T21:28:18.716Z,0.52
2023-05-16T21:30:45.764Z,0.10
2023-05-16T21:33:13.182Z,0.00
2023-05-16T21:35:40.179Z,0.20
2023-05-16T21:38:07.161Z,0.20
2023-05-16T21:40:34.266Z,0.20
2023-05-16T21:43:01.234Z,0.20
2023-05-16T21:45:29.713Z,0.00
2023-05-16T21:47:56.997Z,0.28
2023-05-16T21:50:24.170Z,0.55
2023-05-16T21:52:51.215Z,0.10
2023-05-16T21:55:18.366Z,0.20
2023-05-16T21:57:45.378Z,0.43
2023-05-16T22:00:13.017Z,0.75
2023-05-16T22:02:40.097Z,1.33
2023-05-16T22:05:07.713Z,1.52
2023-05-16T22:07:34.941Z,0.85
2023-05-16T22:10:02.702Z,0.00
2023-05-16T22:12:29.710Z,0.45
2023-05-16T22:14:56.964Z,0.08
2023-05-16T22:17:24.093Z,0.20
2023-05-16T22:19:51.142Z,0.25
2023-05-16T22:22:18.184Z,0.20
2023-05-16T22:24:45.186Z,0.32
2023-05-16T22:27:12.172Z,0.00
2023-05-16T22:29:39.323Z,0.10
2023-05-16T22:32:10.337Z,0.20
2023-05-16T22:34:40.855Z,0.20
2023-05-16T22:37:10.585Z,0.17
2023-05-16T22:39:40.679Z,0.20
2023-05-16T22:42:07.797Z,0.38
2023-05-16T22:44:34.870Z,0.25
2023-05-16T22:47:01.914Z,0.47
2023-05-16T22:49:28.979Z,0.00
2023-05-16T22:51:56.135Z,0.55
2023-05-16T22:54:23.168Z,0.35
2023-05-16T22:56:50.190Z,0.00
2023-05-16T22:59:17.430Z,0.10
2023-05-16T23:01:44.519Z,0.10
2023-05-16T23:04:11.600Z,0.28
2023-05-16T23:06:38.839Z,0.00
2023-05-16T23:09:05.916Z,0.05
2023-05-16T23:11:33.260Z,0.00
2023-05-16T23:14:00.333Z,0.15
2023-05-16T23:16:27.403Z,0.00
2023-05-16T23:18:54.582Z,0.20
2023-05-16T23:21:21.758Z,0.55
2023-05-16T23:23:48.779Z,0.05
2023-05-16T23:26:15.784Z,0.13
2023-05-16T23:28:42.818Z,0.30
2023-05-16T23:31:10.131Z,0.00
2023-05-16T23:33:37.204Z,0.00
2023-05-16T23:36:04.707Z,0.00
2023-05-16T23:38:31.705Z,0.03
2023-05-16T23:40:58.843Z,0.13
2023-05-16T23:43:25.879Z,0.63
2023-05-16T23:45:53.009Z,0.00
2023-05-16T23:48:20.043Z,0.10
2023-05-16T23:50:47.118Z,0.35
2023-05-16T23:53:14.236Z,0.03
2023-05-16T23:55:41.342Z,0.00
2023-05-16T23:58:08.385Z,0.20
